Flight Track Log - Related Links

Times and Time Zones

All times are in EDT time to prevent confusion due to time zone crossing. See the N724CM flight status page for this flight to view local times or setup timezone preferences in your user account.

Time Position Orientation Groundspeed Altitude Reporting Facility
EDT Latitude Longitude Course Direction KTS MPH feet Rate Location/Type
Fri 03:58:26 PM 32.5458 -89.8767 65° Northeast 170 196 4,600  Level Memphis Center
Fri 03:59:26 PM 32.5622 -89.8272 69° East 158 182 5,400 700 Climbing Memphis Center
Fri 04:00:26 PM 32.5786 -89.7853 65° Northeast 146 168 6,000 650 Climbing Memphis Center
Fri 04:01:26 PM 32.5931 -89.7383 70° East 146 168 6,700 500 Climbing Memphis Center
Fri 04:02:00 PM 32.5175 -89.8476 68° East  Level FlightAware Approximate
Fri 04:02:26 PM 32.6094 -89.6914 67° East 146 168 7,000  Level Memphis Center
Fri 04:03:00 PM 32.5344 -89.7972 65° Northeast  Level FlightAware Approximate
Fri 04:03:26 PM 32.6281 -89.6394 67° East 152 175 7,100  Level Memphis Center
Fri 04:04:26 PM 32.6464 -89.5800 70° East 170 196 7,100  Level Memphis Center
Fri 04:05:26 PM 32.6650 -89.5256 68° East 170 196 7,100  Level Memphis Center
Fri 04:06:26 PM 32.6833 -89.4711 68° East 170 196 7,100  Level Memphis Center
Fri 04:07:26 PM 32.7017 -89.4167 68° East 170 196 7,100  Level Memphis Center
Fri 04:08:26 PM 32.7222 -89.3597 67° East 170 196 7,100  Level Memphis Center
Fri 04:09:26 PM 32.7425 -89.3028 67° East 170 196 7,100  Level Memphis Center
Fri 04:10:26 PM 32.7589 -89.2506 70° East 176 203 7,100  Level Memphis Center
Fri 04:11:26 PM 32.7772 -89.1961 68° East 176 203 7,100  Level Memphis Center
Fri 04:12:26 PM 32.7975 -89.1364 68° East 181 208 7,100  Level Memphis Center
Fri 04:13:26 PM 32.8178 -89.0792 67° East 181 208 7,100  Level Memphis Center
Fri 04:14:26 PM 32.8358 -89.0222 69° East 181 208 7,100  Level Memphis Center
Fri 04:15:26 PM 32.8542 -88.9650 69° East 181 208 7,100  Level Memphis Center
Fri 04:16:26 PM 32.8742 -88.9103 66° East 181 208 7,100  Level Memphis Center
Fri 04:17:26 PM 32.8944 -88.8506 68° East 181 208 7,100  Level Memphis Center
Fri 04:18:26 PM 32.9125 -88.7908 70° East 186 214 7,100  Level Memphis Center
Fri 04:19:26 PM 32.9306 -88.7336 69° East 186 214 7,100  Level Memphis Center
Fri 04:20:26 PM 32.9506 -88.6764 67° East 191 220 7,100  Level Memphis Center
Fri 04:21:26 PM 32.9708 -88.6189 67° East 186 214 7,100  Level Memphis Center
Fri 04:22:28 PM 32.9908 -88.5542 70° East 188 216 7,100  Level Memphis Center
Fri 04:23:29 PM 33.0108 -88.4942 68° East 186 214 7,100  Level Memphis Center
Fri 04:24:30 PM 33.0286 -88.4369 70° East 185 213 7,100  Level Memphis Center
Fri 04:25:30 PM 33.0486 -88.3769 68° East 190 219 7,100  Level Memphis Center
Fri 04:26:31 PM 33.0683 -88.3122 70° East 192 221 7,100  Level Memphis Center
Fri 04:27:32 PM 33.0883 -88.2572 67° East 193 222 7,100  Level Memphis Center
Fri 04:28:33 PM 33.1061 -88.1972 71° East 194 223 7,100  Level Memphis Center
Fri 04:29:34 PM 33.1281 -88.1372 66° East 196 226 7,100  Level Memphis Center
Fri 04:30:34 PM 33.1478 -88.0719 70° East 193 222 7,100  Level Memphis Center
Fri 04:36:22 PM 33.2567 -87.7328 69° East 192 221 7,100  Level Atlanta Center
Fri 04:37:09 PM 33.2706 -87.6886 69° East 183 211 7,100  Level Atlanta Center
Fri 04:38:09 PM 33.2892 -87.6272 70° East 183 211 7,100  Level Atlanta Center
Fri 04:38:42 PM 33.3006 -87.5931 68° East 194 223 7,100  Level Atlanta Center
Fri 04:39:42 PM 33.3189 -87.5314 70° East 195 224 7,100  Level Atlanta Center
Fri 04:40:43 PM 33.3372 -87.4750 69° East 192 221 7,100 -197 Level Atlanta Center
Fri 04:41:44 PM 33.3558 -87.4111 71° East 197 227 6,700 -411 Descending Atlanta Center
Fri 04:43:09 PM 33.3872 -87.3228 67° East 195 224 6,100 -298 Descending Atlanta Center
Fri 04:43:45 PM 33.4031 -87.2811 66° East 199 229 6,100  Level Atlanta Center
Fri 04:44:45 PM 33.4294 -87.2272 60° Northeast 188 216 6,100 50 Level Atlanta Center
Fri 04:45:46 PM 33.4600 -87.1761 54° Northeast 186 214 6,200  Climbing Atlanta Center
Fri 04:46:47 PM 33.4883 -87.1250 56° Northeast 186 214 6,100 -52 Descending Atlanta Center
Fri 04:47:41 PM 33.5125 -87.0758 59° Northeast 184 212 6,100 -104 Level Atlanta Center
Fri 04:48:42 PM 33.5411 -87.0247 56° Northeast 184 212 5,900 -298 Descending Atlanta Center
Fri 04:49:42 PM 33.5714 -86.9733 55° Northeast 196 226 5,500 -397 Descending Atlanta Center
Fri 04:50:43 PM 33.6058 -86.9269 48° Northeast 181 208 5,100 -365 Descending Atlanta Center
Fri 04:51:37 PM 33.6383 -86.8858 46° Northeast 172 198 4,800 -626 Descending Atlanta Center
Fri 04:52:38 PM 33.6417 -86.8211 86° East 211 243 3,900 -1,131 Descending Atlanta Center
Fri 04:53:39 PM 33.6350 -86.7558 97° East 194 223 2,500 -1,140 Descending Atlanta Center
Fri 04:54:39 PM 33.5975 -86.7497 172° South 118 136 1,600 -900 Descending Atlanta Center
Fri 04:56:00 PM 33.5639 -86.7523 68° East  Level Estimated
Fri 05:03:00 PM 33.5639 -86.7523 68° East  Level Estimated

Login

Don't have an account? Register now (free) for customized features, flight alerts, and more!